createdAt,value
2018-04-29T00:01:18.088Z,14.59
2018-04-29T00:03:46.303Z,14.54
2018-04-29T00:06:14.535Z,14.46
2018-04-29T00:08:43.045Z,14.41
2018-04-29T00:11:11.275Z,14.45
2018-04-29T00:13:39.501Z,14.43
2018-04-29T00:16:07.809Z,14.42
2018-04-29T00:18:36.073Z,14.40
2018-04-29T00:21:04.404Z,14.39
2018-04-29T00:23:33.026Z,14.34
2018-04-29T00:26:01.247Z,14.29
2018-04-29T00:28:29.665Z,14.28
2018-04-29T00:30:58.145Z,14.26
2018-04-29T00:33:26.373Z,14.23
2018-04-29T00:35:54.808Z,14.20
2018-04-29T00:38:23.290Z,14.18
2018-04-29T00:40:51.475Z,14.16
2018-04-29T00:43:19.894Z,14.13
2018-04-29T00:45:48.491Z,14.10
2018-04-29T00:48:16.677Z,14.04
2018-04-29T00:50:45.145Z,13.96
2018-04-29T00:53:13.779Z,13.93
2018-04-29T00:55:42.010Z,13.89
2018-04-29T00:58:10.369Z,13.87
2018-04-29T01:00:39.026Z,13.86
2018-04-29T01:03:07.231Z,13.81
2018-04-29T01:05:35.643Z,13.79
2018-04-29T01:08:04.144Z,13.78
2018-04-29T01:10:32.364Z,13.73
2018-04-29T01:13:00.738Z,13.70
2018-04-29T01:15:29.353Z,13.69
2018-04-29T01:17:57.572Z,13.67
2018-04-29T01:20:25.852Z,13.66
2018-04-29T01:22:54.485Z,13.63
2018-04-29T01:25:22.697Z,13.61
2018-04-29T01:27:51.023Z,13.61
2018-04-29T01:30:19.550Z,13.58
2018-04-29T01:32:47.796Z,13.56
2018-04-29T01:35:16.186Z,13.55
2018-04-29T01:37:44.778Z,13.53
2018-04-29T01:40:12.966Z,13.54
2018-04-29T01:42:41.260Z,13.52
2018-04-29T01:45:09.964Z,13.47
2018-04-29T01:47:38.165Z,13.48
2018-04-29T01:50:06.559Z,13.45
2018-04-29T01:52:35.038Z,13.45
2018-04-29T01:55:03.288Z,13.42
2018-04-29T01:57:31.868Z,13.42
2018-04-29T02:00:00.585Z,13.38
2018-04-29T02:02:28.822Z,13.35
2018-04-29T02:04:57.001Z,13.35
2018-04-29T02:07:25.521Z,13.32
2018-04-29T02:09:53.722Z,13.27
2018-04-29T02:12:22.049Z,13.21
2018-04-29T02:14:50.651Z,13.11
2018-04-29T02:17:18.848Z,13.10
2018-04-29T02:19:47.258Z,13.06
2018-04-29T02:22:15.785Z,13.04
2018-04-29T02:24:43.978Z,12.95
2018-04-29T02:27:12.299Z,12.92
2018-04-29T02:29:40.926Z,12.93
2018-04-29T02:32:09.119Z,12.86
2018-04-29T02:34:37.471Z,12.79
2018-04-29T02:37:06.141Z,12.70
2018-04-29T02:39:34.341Z,12.68
2018-04-29T02:42:02.690Z,12.66
2018-04-29T02:44:31.295Z,12.65
2018-04-29T02:46:59.561Z,12.60
2018-04-29T02:49:27.818Z,12.58
2018-04-29T02:51:56.008Z,12.50
2018-04-29T02:54:24.257Z,12.45
2018-04-29T02:56:52.469Z,12.44
2018-04-29T02:59:21.079Z,12.39
2018-04-29T03:01:49.288Z,12.37
2018-04-29T03:04:17.471Z,12.34
2018-04-29T03:06:45.700Z,12.34
2018-04-29T03:09:13.882Z,12.32
2018-04-29T03:11:42.411Z,12.31
2018-04-29T03:14:10.637Z,12.27
2018-04-29T03:16:38.846Z,12.20
2018-04-29T03:21:41.667Z,12.12
2018-04-29T03:24:09.838Z,12.10
2018-04-29T03:26:38.014Z,12.10
2018-04-29T03:29:08.250Z,12.09
2018-04-29T03:31:36.838Z,12.04
2018-04-29T03:34:05.044Z,12.03
2018-04-29T03:36:33.278Z,12.08
2018-04-29T03:39:01.965Z,12.04
2018-04-29T03:41:30.667Z,12.04
2018-04-29T03:43:59.107Z,12.05
2018-04-29T03:46:27.683Z,12.06
2018-04-29T03:48:55.917Z,12.06
2018-04-29T03:51:24.455Z,12.06
2018-04-29T03:53:52.804Z,12.05
2018-04-29T03:56:22.258Z,12.05
2018-04-29T03:59:02.358Z,12.04
2018-04-29T04:01:51.283Z,12.03
2018-04-29T04:04:11.301Z,12.02
2018-04-29T04:06:39.538Z,12.03
2018-04-29T04:09:08.168Z,12.04
2018-04-29T04:11:36.403Z,12.04
2018-04-29T04:14:04.702Z,12.09
2018-04-29T04:16:33.241Z,12.14
2018-04-29T04:19:01.421Z,12.21
2018-04-29T04:21:29.899Z,12.22
2018-04-29T04:23:58.394Z,12.26
2018-04-29T04:26:26.592Z,12.30
2018-04-29T04:28:55.013Z,12.32
2018-04-29T04:31:24.022Z,12.28
2018-04-29T04:33:52.212Z,12.23
2018-04-29T04:36:20.416Z,12.13
2018-04-29T04:38:48.719Z,12.09
2018-04-29T04:41:16.912Z,11.99
2018-04-29T04:43:45.371Z,11.95
2018-04-29T04:46:13.975Z,11.93
2018-04-29T04:48:42.164Z,11.94
2018-04-29T04:51:10.563Z,11.87
2018-04-29T04:53:39.110Z,11.90
2018-04-29T04:56:07.348Z,11.95
2018-04-29T04:58:35.780Z,12.03
2018-04-29T05:01:04.354Z,12.09
2018-04-29T05:03:32.544Z,12.07
2018-04-29T05:06:00.845Z,12.08
2018-04-29T05:08:29.492Z,12.14
2018-04-29T05:10:57.718Z,12.25
2018-04-29T05:13:26.089Z,12.25
2018-04-29T05:15:55.034Z,12.26
2018-04-29T05:18:23.219Z,12.35
2018-04-29T05:20:51.433Z,12.37
2018-04-29T05:23:19.840Z,12.44
2018-04-29T05:25:48.180Z,12.49
2018-04-29T05:28:16.400Z,12.59
2018-04-29T05:30:45.059Z,12.70
2018-04-29T05:33:13.277Z,12.76
2018-04-29T05:35:41.562Z,12.82
2018-04-29T05:38:10.204Z,12.93
2018-04-29T05:40:38.438Z,13.00
2018-04-29T05:43:06.708Z,13.07
2018-04-29T05:45:35.349Z,13.12
2018-04-29T05:48:03.578Z,13.21
2018-04-29T05:50:31.827Z,13.29
2018-04-29T05:53:00.007Z,13.22
2018-04-29T05:55:28.190Z,13.28
2018-04-29T05:57:56.408Z,13.35
2018-04-29T06:00:25.063Z,13.43
2018-04-29T06:02:53.386Z,13.56
2018-04-29T06:05:21.565Z,13.46
2018-04-29T06:07:50.181Z,13.42
2018-04-29T06:10:18.390Z,13.39
2018-04-29T06:12:46.589Z,13.37
2018-04-29T06:15:15.271Z,13.39
2018-04-29T06:17:44.368Z,13.38
2018-04-29T06:20:12.560Z,13.42
2018-04-29T06:22:41.108Z,13.47
2018-04-29T06:25:09.313Z,13.53
2018-04-29T06:27:37.550Z,13.63
2018-04-29T06:30:06.183Z,13.82
2018-04-29T06:32:34.442Z,13.92
2018-04-29T06:35:02.847Z,14.08
2018-04-29T06:37:31.307Z,14.11
2018-04-29T06:39:59.532Z,14.14
2018-04-29T06:42:27.934Z,14.09
2018-04-29T06:44:56.570Z,14.09
2018-04-29T06:47:24.766Z,14.12
2018-04-29T06:49:53.021Z,14.12
2018-04-29T06:52:21.595Z,14.16
2018-04-29T06:54:49.803Z,14.06
2018-04-29T06:57:18.131Z,13.96
2018-04-29T06:59:46.843Z,13.70
2018-04-29T07:02:15.052Z,13.60
2018-04-29T07:04:43.339Z,13.44
2018-04-29T07:07:11.981Z,13.38
2018-04-29T07:09:40.193Z,13.39
2018-04-29T07:12:08.392Z,13.27
2018-04-29T07:14:37.035Z,13.27
2018-04-29T07:17:05.223Z,13.17
2018-04-29T07:19:33.701Z,13.15
2018-04-29T07:22:02.346Z,13.15
2018-04-29T07:24:30.579Z,13.13
2018-04-29T07:26:58.995Z,13.11
2018-04-29T07:29:27.562Z,13.17
2018-04-29T07:31:56.140Z,13.28
2018-04-29T07:34:24.337Z,13.53
2018-04-29T07:36:53.010Z,13.74
2018-04-29T07:39:21.220Z,13.96
2018-04-29T07:41:49.435Z,14.18
2018-04-29T07:44:17.823Z,14.35
2018-04-29T07:46:46.067Z,14.55
2018-04-29T07:49:14.368Z,14.81
2018-04-29T07:51:42.999Z,15.12
2018-04-29T07:54:11.342Z,15.26
2018-04-29T07:56:39.519Z,15.34
2018-04-29T07:59:08.735Z,15.33
2018-04-29T08:01:36.977Z,15.33
2018-04-29T08:04:05.227Z,15.28
2018-04-29T08:06:33.759Z,15.20
2018-04-29T08:09:02.002Z,15.13
2018-04-29T08:11:30.203Z,15.13
2018-04-29T08:13:58.997Z,15.28
2018-04-29T08:16:28.642Z,15.41
2018-04-29T08:18:57.359Z,15.65
2018-04-29T08:21:25.565Z,15.81
2018-04-29T08:23:54.143Z,15.80
2018-04-29T08:26:22.341Z,15.88
2018-04-29T08:28:50.532Z,15.97
2018-04-29T08:31:18.792Z,16.00
2018-04-29T08:33:47.034Z,15.96
2018-04-29T08:36:15.507Z,15.90
2018-04-29T08:38:43.995Z,15.72
2018-04-29T08:41:12.181Z,15.30
2018-04-29T08:43:40.611Z,15.14
2018-04-29T08:46:09.158Z,14.79
2018-04-29T08:48:37.465Z,14.43
2018-04-29T08:51:05.712Z,14.26
2018-04-29T08:53:34.384Z,14.06
2018-04-29T08:56:02.616Z,14.10
2018-04-29T08:58:30.981Z,14.04
2018-04-29T09:00:59.525Z,14.00
2018-04-29T09:03:27.745Z,14.00
2018-04-29T09:05:56.217Z,13.95
2018-04-29T09:08:24.760Z,14.01
2018-04-29T09:10:52.978Z,14.10
2018-04-29T09:13:21.201Z,14.12
2018-04-29T09:15:49.836Z,14.23
2018-04-29T09:18:18.085Z,14.23
2018-04-29T09:20:46.550Z,14.20
2018-04-29T09:23:14.965Z,14.15
2018-04-29T09:25:43.197Z,14.19
2018-04-29T09:28:12.138Z,14.34
2018-04-29T09:30:40.575Z,14.40
2018-04-29T09:33:08.785Z,14.53
2018-04-29T09:35:36.989Z,14.62
2018-04-29T09:38:06.156Z,14.83
2018-04-29T09:40:34.718Z,15.01
2018-04-29T09:43:02.930Z,15.15
2018-04-29T09:45:31.168Z,15.36
2018-04-29T09:47:59.847Z,15.64
2018-04-29T09:50:28.107Z,15.93
2018-04-29T09:52:56.383Z,16.19
2018-04-29T09:55:25.107Z,16.43
2018-04-29T09:57:53.332Z,16.63
2018-04-29T10:00:27.465Z,16.72
2018-04-29T10:03:01.627Z,16.86
2018-04-29T10:05:30.264Z,17.08
2018-04-29T10:07:59.401Z,17.10
2018-04-29T10:10:27.675Z,17.13
2018-04-29T10:12:55.999Z,17.20
2018-04-29T10:15:24.211Z,17.25
2018-04-29T10:17:52.639Z,17.46
2018-04-29T10:20:21.256Z,17.60
2018-04-29T10:22:50.043Z,17.68
2018-04-29T10:25:18.288Z,17.71
2018-04-29T10:27:46.879Z,17.60
2018-04-29T10:30:15.088Z,17.66
2018-04-29T10:32:43.372Z,17.84
2018-04-29T10:35:11.809Z,17.97
2018-04-29T10:37:40.013Z,18.24
2018-04-29T10:40:08.209Z,18.51
2018-04-29T10:42:36.651Z,18.78
2018-04-29T10:45:04.885Z,19.03
2018-04-29T10:47:33.154Z,19.17
2018-04-29T10:50:01.799Z,19.24
2018-04-29T10:52:30.031Z,19.22
2018-04-29T10:54:58.285Z,19.16
2018-04-29T10:57:26.895Z,19.20
2018-04-29T10:59:55.073Z,19.25
2018-04-29T11:02:23.435Z,19.18
2018-04-29T11:04:52.156Z,19.03
2018-04-29T11:07:20.360Z,19.20
2018-04-29T11:09:48.668Z,19.30
2018-04-29T11:12:17.242Z,19.39
2018-04-29T11:14:45.459Z,19.49
2018-04-29T11:17:13.810Z,19.72
2018-04-29T11:19:42.427Z,19.83
2018-04-29T11:22:10.709Z,19.86
2018-04-29T11:24:39.085Z,19.97
2018-04-29T11:27:07.608Z,20.12
2018-04-29T11:29:35.813Z,20.10
2018-04-29T11:32:04.188Z,20.19
2018-04-29T11:34:32.787Z,20.25
2018-04-29T11:37:01.017Z,20.22
2018-04-29T11:39:29.353Z,20.18
2018-04-29T11:41:58.018Z,20.15
2018-04-29T11:44:26.276Z,20.25
2018-04-29T11:46:54.532Z,20.23
2018-04-29T11:49:23.203Z,20.41
2018-04-29T11:51:51.435Z,20.44
2018-04-29T11:54:19.720Z,20.57
2018-04-29T11:56:48.302Z,20.48
2018-04-29T11:59:16.531Z,20.42
2018-04-29T12:01:45.346Z,20.42
2018-04-29T12:04:14.073Z,20.50
2018-04-29T12:06:42.311Z,20.55
2018-04-29T12:09:10.510Z,20.72
2018-04-29T12:11:39.086Z,20.96
2018-04-29T12:14:07.337Z,21.38
2018-04-29T12:16:35.571Z,22.15
2018-04-29T12:19:04.177Z,22.44
2018-04-29T12:21:32.386Z,22.45
2018-04-29T12:24:00.617Z,22.29
2018-04-29T12:26:28.978Z,22.26
2018-04-29T12:28:57.207Z,22.36
2018-04-29T12:31:25.498Z,22.39
2018-04-29T12:33:54.241Z,22.96
2018-04-29T12:36:22.471Z,23.67
2018-04-29T12:38:50.662Z,23.87
2018-04-29T12:41:19.262Z,23.93
2018-04-29T12:43:47.464Z,23.59
2018-04-29T12:46:15.821Z,23.46
2018-04-29T12:48:44.474Z,23.34
2018-04-29T12:51:12.776Z,23.07
2018-04-29T12:53:40.976Z,22.63
2018-04-29T12:56:09.619Z,22.54
2018-04-29T12:58:37.845Z,22.72
2018-04-29T13:01:06.182Z,23.03
2018-04-29T13:03:34.795Z,23.48
2018-04-29T13:06:03.005Z,23.39
2018-04-29T13:08:31.498Z,23.40
2018-04-29T13:11:00.650Z,23.80
2018-04-29T13:13:28.837Z,24.29
2018-04-29T13:15:57.047Z,24.63
2018-04-29T13:18:25.599Z,24.82
2018-04-29T13:20:53.826Z,25.26
2018-04-29T13:23:22.988Z,25.74
2018-04-29T13:25:51.209Z,26.07
2018-04-29T13:28:19.855Z,25.99
2018-04-29T13:30:48.100Z,25.59
2018-04-29T13:33:16.303Z,25.52
2018-04-29T13:35:44.594Z,25.58
2018-04-29T13:38:12.773Z,25.73
2018-04-29T13:40:41.235Z,25.97
2018-04-29T13:43:09.480Z,26.09
2018-04-29T13:45:37.694Z,26.14
2018-04-29T13:48:06.238Z,26.05
2018-04-29T13:50:34.514Z,25.85
2018-04-29T13:53:02.690Z,26.13
2018-04-29T13:55:31.091Z,26.49
2018-04-29T13:57:59.305Z,26.54
2018-04-29T14:00:27.639Z,26.80
2018-04-29T14:02:56.257Z,26.87
2018-04-29T14:05:24.438Z,27.02
2018-04-29T14:07:52.859Z,27.20
2018-04-29T14:10:21.537Z,27.27
2018-04-29T14:12:49.687Z,26.89
2018-04-29T14:15:17.956Z,26.55
2018-04-29T14:17:46.567Z,26.06
2018-04-29T14:20:14.842Z,25.42
2018-04-29T14:22:44.020Z,25.11
2018-04-29T14:25:12.483Z,24.99
2018-04-29T14:27:41.134Z,24.89
2018-04-29T14:30:09.340Z,25.02
2018-04-29T14:32:37.620Z,25.10
2018-04-29T14:35:05.845Z,24.95
2018-04-29T14:37:34.041Z,24.94
2018-04-29T14:40:02.438Z,24.67
2018-04-29T14:42:30.646Z,24.64
2018-04-29T14:44:58.812Z,24.62
2018-04-29T14:47:27.285Z,24.54
2018-04-29T14:49:55.521Z,24.51
2018-04-29T14:52:23.759Z,24.59
2018-04-29T14:54:52.467Z,24.85
2018-04-29T14:57:20.672Z,24.87
2018-04-29T14:59:49.103Z,24.77
2018-04-29T15:02:17.713Z,24.25
2018-04-29T15:04:45.925Z,23.95
2018-04-29T15:07:14.999Z,23.66
2018-04-29T15:09:43.593Z,23.55
2018-04-29T15:12:12.363Z,23.39
2018-04-29T15:14:40.550Z,23.23
2018-04-29T15:17:09.063Z,23.04
2018-04-29T15:19:55.007Z,23.01
2018-04-29T15:22:23.372Z,23.07
2018-04-29T15:24:52.107Z,23.19
2018-04-29T15:27:20.353Z,23.25
2018-04-29T15:29:48.998Z,23.27
2018-04-29T15:32:17.226Z,23.27
2018-04-29T15:34:45.423Z,23.23
2018-04-29T15:37:13.730Z,23.22
2018-04-29T15:39:41.939Z,23.05
2018-04-29T15:42:10.512Z,23.01
2018-04-29T15:44:38.872Z,22.90
2018-04-29T15:47:07.083Z,22.73
2018-04-29T15:49:35.422Z,22.61
2018-04-29T15:52:03.626Z,22.44
2018-04-29T15:54:31.856Z,22.43
2018-04-29T15:57:00.049Z,22.47
2018-04-29T15:59:28.757Z,22.43
2018-04-29T16:01:56.939Z,22.44
2018-04-29T16:04:25.227Z,22.48
2018-04-29T16:06:53.977Z,22.46
2018-04-29T16:09:22.183Z,22.31
2018-04-29T16:11:50.397Z,22.30
2018-04-29T16:14:18.625Z,22.26
2018-04-29T16:16:46.817Z,22.23
2018-04-29T16:19:15.187Z,22.21
2018-04-29T16:21:43.382Z,22.19
2018-04-29T16:24:11.607Z,22.09
2018-04-29T16:26:39.849Z,22.05
2018-04-29T16:29:08.065Z,22.06
2018-04-29T16:31:36.516Z,22.03
2018-04-29T16:34:05.010Z,21.97
2018-04-29T16:36:33.226Z,22.00
2018-04-29T16:39:01.604Z,22.07
2018-04-29T16:41:30.120Z,22.09
2018-04-29T16:43:58.293Z,22.14
2018-04-29T16:46:26.695Z,22.13
2018-04-29T16:48:55.260Z,22.13
2018-04-29T16:51:23.494Z,22.13
2018-04-29T16:53:51.736Z,22.12
2018-04-29T16:56:20.400Z,22.15
2018-04-29T16:58:48.659Z,22.11
2018-04-29T17:01:16.977Z,22.17
2018-04-29T17:03:45.539Z,22.21
2018-04-29T17:06:13.770Z,22.24
2018-04-29T17:08:41.984Z,22.24
2018-04-29T17:11:10.566Z,22.25
2018-04-29T17:13:38.802Z,22.24
2018-04-29T17:16:07.149Z,22.20
2018-04-29T17:18:35.698Z,22.15
2018-04-29T17:21:03.891Z,22.21
2018-04-29T17:23:32.344Z,22.17
2018-04-29T17:26:00.900Z,22.15
2018-04-29T17:28:29.104Z,22.10
2018-04-29T17:30:57.690Z,22.10
2018-04-29T17:33:26.795Z,22.07
2018-04-29T17:35:55.040Z,22.05
2018-04-29T17:38:23.422Z,22.05
2018-04-29T17:40:52.319Z,22.05
2018-04-29T17:43:20.546Z,22.00
2018-04-29T17:45:48.732Z,21.96
2018-04-29T17:48:17.404Z,21.90
2018-04-29T17:50:45.695Z,21.92
2018-04-29T17:53:14.844Z,21.89
2018-04-29T17:55:44.060Z,21.86
2018-04-29T17:58:13.167Z,21.77
2018-04-29T18:00:41.513Z,21.66
2018-04-29T18:03:09.744Z,21.52
2018-04-29T18:05:38.737Z,21.43
2018-04-29T18:08:07.435Z,21.34
2018-04-29T18:10:35.692Z,21.22
2018-04-29T18:13:04.536Z,21.04
2018-04-29T18:15:33.500Z,21.05
2018-04-29T18:18:02.591Z,20.98
2018-04-29T18:20:30.800Z,20.88
2018-04-29T18:23:00.427Z,20.83
2018-04-29T18:25:28.858Z,20.79
2018-04-29T18:27:57.590Z,20.77
2018-04-29T18:30:25.832Z,20.75
2018-04-29T18:32:54.663Z,20.66
2018-04-29T18:35:23.410Z,20.59
2018-04-29T18:37:52.485Z,20.52
2018-04-29T18:40:20.748Z,20.50
2018-04-29T18:42:49.614Z,20.46
2018-04-29T18:45:18.581Z,20.49
2018-04-29T18:47:47.711Z,20.46
2018-04-29T18:50:15.957Z,20.48
2018-04-29T18:52:44.671Z,20.43
2018-04-29T18:55:13.605Z,20.46
2018-04-29T18:57:42.544Z,20.41
2018-04-29T19:00:10.770Z,20.36
2018-04-29T19:02:39.826Z,20.35
2018-04-29T19:05:08.788Z,20.37
2018-04-29T19:07:37.606Z,20.35
2018-04-29T19:10:05.929Z,20.32
2018-04-29T19:12:34.606Z,20.33
2018-04-29T19:15:03.519Z,20.34
2018-04-29T19:17:32.582Z,20.36
2018-04-29T19:20:00.830Z,20.37
2018-04-29T19:22:29.572Z,20.39
2018-04-29T19:24:58.538Z,20.38
2018-04-29T19:27:27.485Z,20.32
2018-04-29T19:29:55.706Z,20.28
2018-04-29T19:32:24.584Z,20.29
2018-04-29T19:34:53.503Z,20.27
2018-04-29T19:37:22.537Z,20.31
2018-04-29T19:39:50.866Z,20.34
2018-04-29T19:42:19.661Z,20.32
2018-04-29T19:44:48.551Z,20.30
2018-04-29T19:47:18.235Z,20.25
2018-04-29T19:49:46.561Z,20.21
2018-04-29T19:52:14.756Z,20.18
2018-04-29T19:54:43.637Z,20.15
2018-04-29T19:57:12.474Z,20.14
2018-04-29T19:59:40.794Z,20.09
2018-04-29T20:02:09.527Z,20.08
2018-04-29T20:04:38.478Z,20.14
2018-04-29T20:07:07.504Z,20.11
2018-04-29T20:09:35.740Z,20.09
2018-04-29T20:12:04.496Z,20.09
2018-04-29T20:14:33.477Z,20.08
2018-04-29T20:17:02.479Z,20.08
2018-04-29T20:19:30.680Z,20.14
2018-04-29T20:21:59.492Z,20.12
2018-04-29T20:24:28.343Z,20.08
2018-04-29T20:26:57.418Z,20.04
2018-04-29T20:29:25.678Z,20.07
2018-04-29T20:31:54.449Z,20.08
2018-04-29T20:34:23.457Z,20.14
2018-04-29T20:36:52.398Z,20.06
2018-04-29T20:39:20.608Z,20.04
2018-04-29T20:41:49.498Z,19.99
2018-04-29T20:44:18.430Z,19.98
2018-04-29T20:46:47.463Z,19.98
2018-04-29T20:49:15.643Z,19.93
2018-04-29T20:51:44.506Z,19.85
2018-04-29T20:54:13.407Z,19.87
2018-04-29T20:56:41.601Z,19.87
2018-04-29T20:59:09.836Z,19.82
2018-04-29T21:01:38.520Z,19.89
2018-04-29T21:04:06.730Z,19.76
2018-04-29T21:06:34.935Z,19.74
2018-04-29T21:09:03.710Z,19.65
2018-04-29T21:11:32.078Z,19.64
2018-04-29T21:14:00.294Z,19.60
2018-04-29T21:16:28.780Z,19.58
2018-04-29T21:18:57.044Z,19.54
2018-04-29T21:21:25.245Z,19.49
2018-04-29T21:23:53.848Z,19.41
2018-04-29T21:26:22.139Z,19.41
2018-04-29T21:28:50.342Z,19.43
2018-04-29T21:31:19.000Z,19.42
2018-04-29T21:33:47.247Z,19.42
2018-04-29T21:36:15.472Z,19.41
2018-04-29T21:38:44.186Z,19.38
2018-04-29T21:41:12.413Z,19.34
2018-04-29T21:43:40.590Z,19.30
2018-04-29T21:46:09.039Z,19.31
2018-04-29T21:48:37.264Z,19.30
2018-04-29T21:51:05.721Z,19.32
2018-04-29T21:53:34.213Z,19.25
2018-04-29T21:56:02.424Z,19.17
2018-04-29T21:58:30.797Z,19.22
2018-04-29T22:00:59.387Z,19.17
2018-04-29T22:03:27.664Z,19.18
2018-04-29T22:05:56.348Z,19.15
2018-04-29T22:08:24.899Z,19.12
2018-04-29T22:10:53.100Z,18.98
2018-04-29T22:13:21.589Z,19.02
2018-04-29T22:15:50.201Z,18.77
2018-04-29T22:18:18.456Z,18.31
2018-04-29T22:20:46.730Z,17.91
2018-04-29T22:23:15.281Z,17.66
2018-04-29T22:25:43.499Z,17.51
2018-04-29T22:28:11.823Z,17.48
2018-04-29T22:30:40.459Z,17.40
2018-04-29T22:33:08.679Z,17.31
2018-04-29T22:35:37.041Z,17.27
2018-04-29T22:38:05.739Z,17.24
2018-04-29T22:40:33.932Z,17.25
2018-04-29T22:43:02.281Z,17.10
2018-04-29T22:45:30.867Z,16.68
2018-04-29T22:47:59.091Z,16.46
2018-04-29T22:50:27.516Z,16.31
2018-04-29T22:52:56.383Z,16.17
2018-04-29T22:55:24.638Z,15.94
2018-04-29T22:57:52.860Z,15.83
2018-04-29T23:00:21.496Z,15.82
2018-04-29T23:02:49.755Z,15.73
2018-04-29T23:05:18.038Z,15.71
2018-04-29T23:07:46.584Z,15.66
2018-04-29T23:10:16.277Z,15.52
2018-04-29T23:12:44.529Z,15.42
2018-04-29T23:15:12.810Z,15.37
2018-04-29T23:17:41.497Z,15.31
2018-04-29T23:20:09.773Z,15.26
2018-04-29T23:22:38.145Z,15.23
2018-04-29T23:25:06.697Z,15.24
2018-04-29T23:27:34.929Z,15.08
2018-04-29T23:30:03.282Z,15.06
2018-04-29T23:32:32.015Z,15.06
2018-04-29T23:35:00.269Z,14.95
2018-04-29T23:37:28.493Z,14.84
2018-04-29T23:39:57.130Z,14.82
2018-04-29T23:42:25.336Z,14.90
2018-04-29T23:44:53.606Z,14.82
2018-04-29T23:47:22.147Z,14.69
2018-04-29T23:49:50.372Z,14.58
2018-04-29T23:52:18.779Z,14.58
2018-04-29T23:54:47.485Z,14.45
2018-04-29T23:57:15.691Z,14.45
2018-04-29T23:59:44.123Z,14.44
